createdAt,value
2022-08-22T00:02:59.457Z,85.30
2022-08-22T00:03:08.202Z,73.50
2022-08-22T00:05:00.583Z,85.50
2022-08-22T00:10:12.219Z,85.70
2022-08-22T00:15:43.457Z,86.00
2022-08-22T00:20:56.529Z,86.00
2022-08-22T00:26:05.000Z,86.40
2022-08-22T00:31:14.406Z,86.60
2022-08-22T00:36:25.522Z,86.70
2022-08-22T00:42:08.161Z,86.80
2022-08-22T00:47:37.234Z,87.00
2022-08-22T00:53:08.280Z,87.70
2022-08-22T00:58:41.383Z,87.40
2022-08-22T01:03:59.236Z,87.30
2022-08-22T01:09:08.895Z,87.60
2022-08-22T01:14:42.831Z,87.60
2022-08-22T01:20:25.959Z,87.70
2022-08-22T01:26:01.893Z,88.00
2022-08-22T01:31:59.520Z,88.10
2022-08-22T01:37:28.068Z,88.50
2022-08-22T01:43:09.596Z,88.80
2022-08-22T01:48:18.376Z,88.90
2022-08-22T01:53:29.592Z,89.10
2022-08-22T01:58:37.201Z,88.90
2022-08-22T02:03:52.775Z,89.00
2022-08-22T02:09:07.442Z,89.20
2022-08-22T02:14:27.724Z,89.20
2022-08-22T02:19:39.186Z,89.20
2022-08-22T02:24:50.663Z,89.20
2022-08-22T02:30:03.041Z,89.40
2022-08-22T02:35:18.451Z,89.40
2022-08-22T02:40:35.439Z,89.50
2022-08-22T02:45:46.123Z,89.80
2022-08-22T02:50:56.997Z,89.70
2022-08-22T02:56:07.347Z,89.90
2022-08-22T03:01:34.683Z,89.80
2022-08-22T03:06:43.198Z,90.00
2022-08-22T03:11:53.852Z,90.10
2022-08-22T03:17:04.755Z,90.10
2022-08-22T03:22:15.046Z,90.50
2022-08-22T03:27:32.656Z,90.30
2022-08-22T03:32:54.435Z,90.40
2022-08-22T03:38:18.085Z,90.40
2022-08-22T03:43:44.508Z,90.60
2022-08-22T03:49:33.486Z,90.70
2022-08-22T03:55:16.302Z,90.70
2022-08-22T04:01:00.566Z,90.90
2022-08-22T04:06:40.550Z,91.00
2022-08-22T04:12:11.522Z,91.50
2022-08-22T04:17:51.347Z,91.20
2022-08-22T04:23:28.615Z,91.20
2022-08-22T04:28:37.663Z,91.30
2022-08-22T04:33:48.645Z,91.50
2022-08-22T04:39:00.744Z,91.70
2022-08-22T04:44:09.266Z,91.80
2022-08-22T04:49:21.681Z,91.80
2022-08-22T04:54:38.662Z,92.10
2022-08-22T04:59:42.997Z,91.90
2022-08-22T05:04:53.673Z,92.00
2022-08-22T05:10:11.728Z,92.10
2022-08-22T05:15:23.919Z,92.10
2022-08-22T05:20:30.954Z,92.20
2022-08-22T05:25:38.985Z,92.30
2022-08-22T05:30:47.412Z,92.30
2022-08-22T05:35:58.802Z,92.40
2022-08-22T05:41:09.276Z,92.50
2022-08-22T05:46:20.309Z,92.50
2022-08-22T05:51:42.496Z,92.70
2022-08-22T05:56:54.676Z,92.60
2022-08-22T06:02:05.461Z,92.70
2022-08-22T06:07:18.055Z,92.70
2022-08-22T06:12:29.442Z,92.90
2022-08-22T06:17:36.663Z,93.00
2022-08-22T06:22:48.345Z,93.20
2022-08-22T06:28:35.574Z,93.20
2022-08-22T06:33:59.545Z,93.30
2022-08-22T06:39:18.646Z,93.30
2022-08-22T06:44:26.007Z,93.50
2022-08-22T06:49:37.100Z,93.50
2022-08-22T06:55:04.325Z,93.60
2022-08-22T07:00:13.248Z,93.70
2022-08-22T07:05:20.829Z,93.60
2022-08-22T07:10:27.318Z,93.60
2022-08-22T07:15:34.521Z,93.70
2022-08-22T07:20:42.046Z,93.90
2022-08-22T07:25:55.745Z,93.90
2022-08-22T07:31:03.797Z,94.10
2022-08-22T07:36:31.753Z,94.00
2022-08-22T07:41:48.521Z,94.10
2022-08-22T07:46:58.095Z,94.00
2022-08-22T07:52:07.491Z,94.10
2022-08-22T07:57:17.352Z,93.90
2022-08-22T08:02:22.720Z,94.10
2022-08-22T08:07:32.134Z,94.00
2022-08-22T08:12:40.500Z,93.90
2022-08-22T08:17:46.336Z,93.90
2022-08-22T08:22:52.871Z,93.90
2022-08-22T08:28:17.243Z,93.90
2022-08-22T08:33:28.230Z,93.90
2022-08-22T08:38:37.044Z,93.90
2022-08-22T08:43:51.184Z,94.00
2022-08-22T08:49:16.287Z,93.80
2022-08-22T08:54:55.067Z,93.80
2022-08-22T09:00:10.301Z,93.70
2022-08-22T09:05:47.204Z,93.60
2022-08-22T09:11:09.728Z,93.50
2022-08-22T09:16:32.247Z,93.60
2022-08-22T09:21:58.386Z,93.60
2022-08-22T09:27:08.469Z,93.50
2022-08-22T09:32:21.095Z,93.20
2022-08-22T09:37:38.305Z,93.70
2022-08-22T09:42:47.629Z,93.20
2022-08-22T09:48:06.959Z,92.90
2022-08-22T09:53:15.354Z,92.70
2022-08-22T09:58:30.771Z,92.50
2022-08-22T10:04:21.558Z,91.70
2022-08-22T10:09:31.433Z,91.80
2022-08-22T10:14:50.449Z,91.60
2022-08-22T10:20:00.009Z,91.60
2022-08-22T10:25:24.512Z,91.20
2022-08-22T10:30:35.526Z,90.50
2022-08-22T10:35:49.170Z,89.90
2022-08-22T10:41:03.588Z,87.40
2022-08-22T10:46:16.817Z,86.10
2022-08-22T10:51:31.036Z,86.30
2022-08-22T10:56:44.542Z,85.40
2022-08-22T11:02:02.705Z,85.60
2022-08-22T11:07:15.815Z,84.60
2022-08-22T11:12:34.849Z,84.00
2022-08-22T11:18:21.696Z,83.40
2022-08-22T11:23:37.771Z,82.90
2022-08-22T11:29:27.709Z,81.90
2022-08-22T11:34:45.657Z,81.10
2022-08-22T11:40:04.870Z,80.70
2022-08-22T11:45:19.301Z,80.30
2022-08-22T11:50:35.641Z,80.00
2022-08-22T11:55:44.691Z,78.80
2022-08-22T12:00:56.661Z,79.40
2022-08-22T12:06:09.501Z,78.10
2022-08-22T12:11:18.478Z,78.00
2022-08-22T12:16:31.216Z,76.30
2022-08-22T12:21:53.336Z,76.60
2022-08-22T12:27:31.168Z,75.20
2022-08-22T12:33:00.748Z,75.00
2022-08-22T12:38:29.228Z,74.80
2022-08-22T12:43:46.025Z,74.40
2022-08-22T12:49:12.542Z,74.30
2022-08-22T12:54:34.415Z,74.90
2022-08-22T12:59:42.065Z,75.20
2022-08-22T13:04:53.875Z,75.40
2022-08-22T13:10:04.151Z,74.90
2022-08-22T13:15:28.453Z,73.20
2022-08-22T13:20:38.553Z,73.00
2022-08-22T13:26:03.237Z,72.60
2022-08-22T13:31:24.765Z,73.10
2022-08-22T13:36:33.107Z,71.70
2022-08-22T13:41:44.409Z,71.30
2022-08-22T13:47:13.215Z,71.80
2022-08-22T13:52:30.147Z,71.80
2022-08-22T13:57:38.861Z,71.90
2022-08-22T14:03:00.743Z,71.80
2022-08-22T14:08:18.516Z,72.50
2022-08-22T14:13:41.759Z,71.80
2022-08-22T14:18:51.810Z,71.80
2022-08-22T14:24:01.487Z,71.70
2022-08-22T14:29:09.716Z,71.40
2022-08-22T14:34:16.676Z,71.40
2022-08-22T14:39:30.094Z,71.20
2022-08-22T14:45:13.696Z,69.10
2022-08-22T14:50:35.592Z,70.00
2022-08-22T14:56:18.097Z,69.50
2022-08-22T15:01:26.635Z,69.70
2022-08-22T15:06:37.905Z,69.50
2022-08-22T15:11:50.443Z,68.80
2022-08-22T15:17:05.592Z,68.70
2022-08-22T15:22:13.504Z,68.90
2022-08-22T15:27:36.444Z,69.40
2022-08-22T15:32:45.362Z,69.30
2022-08-22T15:37:59.268Z,69.10
2022-08-22T15:43:26.088Z,69.10
2022-08-22T15:48:36.812Z,69.30
2022-08-22T15:54:16.253Z,69.20
2022-08-22T15:59:53.367Z,69.20
2022-08-22T16:05:18.936Z,69.10
2022-08-22T16:10:38.452Z,68.60
2022-08-22T16:16:10.544Z,69.00
2022-08-22T16:21:19.467Z,68.90
2022-08-22T16:26:26.760Z,69.00
2022-08-22T16:31:35.942Z,68.80
2022-08-22T16:36:47.802Z,68.60
2022-08-22T16:41:54.233Z,68.50
2022-08-22T16:47:12.100Z,68.60
2022-08-22T16:52:51.154Z,68.10
2022-08-22T16:58:06.307Z,68.20
2022-08-22T17:03:20.822Z,68.00
2022-08-22T17:08:39.503Z,67.90
2022-08-22T17:13:57.308Z,68.00
2022-08-22T17:19:24.426Z,68.60
2022-08-22T17:24:36.474Z,68.00
2022-08-22T17:29:52.137Z,67.80
2022-08-22T17:35:09.533Z,67.80
2022-08-22T17:40:32.525Z,67.80
2022-08-22T17:45:54.197Z,67.70
2022-08-22T17:51:03.128Z,67.40
2022-08-22T17:56:18.842Z,67.60
2022-08-22T18:01:40.355Z,67.70
2022-08-22T18:06:55.516Z,67.70
2022-08-22T18:12:05.892Z,67.70
2022-08-22T18:17:22.611Z,68.70
2022-08-22T18:22:32.966Z,67.80
2022-08-22T18:27:41.123Z,68.00
2022-08-22T18:32:55.614Z,68.00
2022-08-22T18:38:19.132Z,68.80
2022-08-22T18:43:38.979Z,68.10
2022-08-22T18:49:05.430Z,68.40
2022-08-22T18:54:41.945Z,68.60
2022-08-22T18:59:57.367Z,68.60
2022-08-22T19:05:28.673Z,68.70
2022-08-22T19:10:42.452Z,68.80
2022-08-22T19:15:58.256Z,68.80
2022-08-22T19:21:39.572Z,69.00
2022-08-22T19:26:51.387Z,69.00
2022-08-22T19:31:57.633Z,69.20
2022-08-22T19:37:30.465Z,69.40
2022-08-22T19:42:42.104Z,69.60
2022-08-22T19:47:56.146Z,69.80
2022-08-22T19:53:26.697Z,69.90
2022-08-22T19:58:42.209Z,69.80
2022-08-22T20:03:53.269Z,69.60
2022-08-22T20:09:14.774Z,69.80
2022-08-22T20:14:30.606Z,69.90
2022-08-22T20:20:16.547Z,70.20
2022-08-22T20:25:16.955Z,70.30
2022-08-22T20:30:43.151Z,70.50
2022-08-22T20:35:54.421Z,70.70
2022-08-22T20:41:11.057Z,70.80
2022-08-22T20:46:33.889Z,70.70
2022-08-22T20:51:38.804Z,70.70
2022-08-22T20:56:53.350Z,70.90
2022-08-22T21:02:08.522Z,70.80
2022-08-22T21:07:28.157Z,71.00
2022-08-22T21:12:31.962Z,71.40
2022-08-22T21:17:40.235Z,71.60
2022-08-22T21:22:44.514Z,71.60
2022-08-22T21:27:49.612Z,71.80
2022-08-22T21:32:56.414Z,71.90
2022-08-22T21:38:02.852Z,71.90
2022-08-22T21:43:08.861Z,72.10
2022-08-22T21:48:44.223Z,72.30
2022-08-22T21:53:48.201Z,72.50
2022-08-22T21:59:50.443Z,72.60
2022-08-22T22:04:54.750Z,72.90
2022-08-22T22:10:00.264Z,72.90
2022-08-22T22:15:04.950Z,73.30
2022-08-22T22:20:11.880Z,73.40
2022-08-22T22:25:39.541Z,73.80
2022-08-22T22:30:40.362Z,73.70
2022-08-22T22:35:46.023Z,73.90
2022-08-22T22:40:50.005Z,74.30
2022-08-22T22:45:53.784Z,74.30
2022-08-22T22:50:58.876Z,74.60
2022-08-22T22:56:02.755Z,74.60
2022-08-22T23:01:09.720Z,74.90
2022-08-22T23:06:18.139Z,75.00
2022-08-22T23:11:25.256Z,75.10
2022-08-22T23:16:36.499Z,75.00
2022-08-22T23:21:43.961Z,75.30
2022-08-22T23:26:47.736Z,75.50
2022-08-22T23:31:54.022Z,75.70
2022-08-22T23:37:00.270Z,75.90
2022-08-22T23:42:04.476Z,76.10
2022-08-22T23:47:11.275Z,76.50
2022-08-22T23:52:16.550Z,76.70
2022-08-22T23:57:20.382Z,76.90
